sensor_id;sensor_type;location;lat;lon;timestamp;temperature;humidity
418;DHT22;49;48.530;9.200;2023-08-31T00:02:05;19.90;99.90
418;DHT22;49;48.530;9.200;2023-08-31T00:04:37;20.10;99.90
418;DHT22;49;48.530;9.200;2023-08-31T00:07:04;20.10;96.50
418;DHT22;49;48.530;9.200;2023-08-31T00:09:34;20.20;98.70
418;DHT22;49;48.530;9.200;2023-08-31T00:12:01;19.80;98.60
418;DHT22;49;48.530;9.200;2023-08-31T00:14:28;19.90;99.90
418;DHT22;49;48.530;9.200;2023-08-31T00:17:01;19.80;99.90
418;DHT22;49;48.530;9.200;2023-08-31T00:19:29;19.60;99.90
418;DHT22;49;48.530;9.200;2023-08-31T00:22:03;19.60;99.90
418;DHT22;49;48.530;9.200;2023-08-31T00:24:33;19.80;99.90
418;DHT22;49;48.530;9.200;2023-08-31T00:27:02;19.70;99.90
418;DHT22;49;48.530;9.200;2023-08-31T00:29:33;19.70;99.90
418;DHT22;49;48.530;9.200;2023-08-31T00:32:11;19.60;99.90
418;DHT22;49;48.530;9.200;2023-08-31T00:34:44;19.90;99.90
418;DHT22;49;48.530;9.200;2023-08-31T00:37:13;19.90;99.50
418;DHT22;49;48.530;9.200;2023-08-31T00:39:40;19.90;99.90
418;DHT22;49;48.530;9.200;2023-08-31T00:42:12;19.80;99.90
418;DHT22;49;48.530;9.200;2023-08-31T00:44:39;19.90;99.90
418;DHT22;49;48.530;9.200;2023-08-31T00:47:14;19.90;99.90
418;DHT22;49;48.530;9.200;2023-08-31T00:49:43;19.80;99.40
418;DHT22;49;48.530;9.200;2023-08-31T00:52:13;19.90;99.70
418;DHT22;49;48.530;9.200;2023-08-31T00:54:40;19.90;99.90
418;DHT22;49;48.530;9.200;2023-08-31T00:57:08;20.10;98.00
418;DHT22;49;48.530;9.200;2023-08-31T00:59:35;20.10;99.90
418;DHT22;49;48.530;9.200;2023-08-31T01:02:13;20.50;99.60
418;DHT22;49;48.530;9.200;2023-08-31T01:04:50;20.70;95.30
418;DHT22;49;48.530;9.200;2023-08-31T01:07:29;20.60;96.00
418;DHT22;49;48.530;9.200;2023-08-31T01:10:04;20.50;95.40
418;DHT22;49;48.530;9.200;2023-08-31T01:12:44;20.40;94.90
418;DHT22;49;48.530;9.200;2023-08-31T01:15:14;20.30;99.90
418;DHT22;49;48.530;9.200;2023-08-31T01:17:45;20.30;95.60
418;DHT22;49;48.530;9.200;2023-08-31T01:20:19;20.40;98.80
418;DHT22;49;48.530;9.200;2023-08-31T01:22:55;20.70;96.30
418;DHT22;49;48.530;9.200;2023-08-31T01:25:24;20.80;93.50
418;DHT22;49;48.530;9.200;2023-08-31T01:27:51;20.60;92.30
418;DHT22;49;48.530;9.200;2023-08-31T01:30:18;20.60;94.20
418;DHT22;49;48.530;9.200;2023-08-31T01:32:45;20.50;92.40
418;DHT22;49;48.530;9.200;2023-08-31T01:35:14;20.40;94.10
418;DHT22;49;48.530;9.200;2023-08-31T01:37:47;20.30;96.00
418;DHT22;49;48.530;9.200;2023-08-31T01:40:18;20.30;93.30
418;DHT22;49;48.530;9.200;2023-08-31T01:42:48;20.10;94.40
418;DHT22;49;48.530;9.200;2023-08-31T01:45:18;20.00;95.00
418;DHT22;49;48.530;9.200;2023-08-31T01:47:46;20.10;93.00
418;DHT22;49;48.530;9.200;2023-08-31T01:50:13;20.10;95.70
418;DHT22;49;48.530;9.200;2023-08-31T01:52:43;20.10;97.30
418;DHT22;49;48.530;9.200;2023-08-31T01:55:10;20.10;94.10
418;DHT22;49;48.530;9.200;2023-08-31T01:57:39;20.50;99.90
418;DHT22;49;48.530;9.200;2023-08-31T02:00:09;20.70;87.10
418;DHT22;49;48.530;9.200;2023-08-31T02:02:39;20.80;92.10
418;DHT22;49;48.530;9.200;2023-08-31T02:05:08;21.00;89.10
418;DHT22;49;48.530;9.200;2023-08-31T02:07:36;21.00;91.50
418;DHT22;49;48.530;9.200;2023-08-31T02:10:04;20.80;84.70
418;DHT22;49;48.530;9.200;2023-08-31T02:12:32;20.60;88.60
418;DHT22;49;48.530;9.200;2023-08-31T02:14:58;20.30;88.00
418;DHT22;49;48.530;9.200;2023-08-31T02:17:27;20.30;91.80
418;DHT22;49;48.530;9.200;2023-08-31T02:19:57;20.00;91.00
418;DHT22;49;48.530;9.200;2023-08-31T02:22:29;20.00;90.30
418;DHT22;49;48.530;9.200;2023-08-31T02:24:56;19.90;93.30
418;DHT22;49;48.530;9.200;2023-08-31T02:27:23;20.00;91.70
418;DHT22;49;48.530;9.200;2023-08-31T02:29:50;20.10;91.10
418;DHT22;49;48.530;9.200;2023-08-31T02:32:17;20.30;91.50
418;DHT22;49;48.530;9.200;2023-08-31T02:34:49;20.30;94.40
418;DHT22;49;48.530;9.200;2023-08-31T02:37:16;20.30;88.00
418;DHT22;49;48.530;9.200;2023-08-31T02:39:43;20.30;90.00
418;DHT22;49;48.530;9.200;2023-08-31T02:42:10;20.20;91.10
418;DHT22;49;48.530;9.200;2023-08-31T02:44:37;20.30;89.00
418;DHT22;49;48.530;9.200;2023-08-31T02:47:04;20.40;86.30
418;DHT22;49;48.530;9.200;2023-08-31T02:49:34;20.20;83.60
418;DHT22;49;48.530;9.200;2023-08-31T02:52:02;20.40;86.30
418;DHT22;49;48.530;9.200;2023-08-31T02:54:30;20.50;88.60
418;DHT22;49;48.530;9.200;2023-08-31T02:56:57;20.50;90.70
418;DHT22;49;48.530;9.200;2023-08-31T02:59:24;20.50;82.20
418;DHT22;49;48.530;9.200;2023-08-31T03:01:51;20.60;83.60
418;DHT22;49;48.530;9.200;2023-08-31T03:04:32;20.50;85.60
418;DHT22;49;48.530;9.200;2023-08-31T03:07:05;20.50;81.00
418;DHT22;49;48.530;9.200;2023-08-31T03:09:32;20.60;89.00
418;DHT22;49;48.530;9.200;2023-08-31T03:11:58;20.40;83.80
418;DHT22;49;48.530;9.200;2023-08-31T03:14:25;20.60;89.60
418;DHT22;49;48.530;9.200;2023-08-31T03:16:52;20.70;83.40
418;DHT22;49;48.530;9.200;2023-08-31T03:19:19;20.70;80.80
418;DHT22;49;48.530;9.200;2023-08-31T03:21:50;20.80;82.00
418;DHT22;49;48.530;9.200;2023-08-31T03:24:18;21.00;86.80
418;DHT22;49;48.530;9.200;2023-08-31T03:26:45;20.90;74.90
418;DHT22;49;48.530;9.200;2023-08-31T03:29:12;21.00;84.60
418;DHT22;49;48.530;9.200;2023-08-31T03:31:41;21.10;79.70
418;DHT22;49;48.530;9.200;2023-08-31T03:34:07;21.30;77.50
418;DHT22;49;48.530;9.200;2023-08-31T03:36:34;21.30;73.70
418;DHT22;49;48.530;9.200;2023-08-31T03:39:01;21.10;83.30
418;DHT22;49;48.530;9.200;2023-08-31T03:41:33;21.00;71.30
418;DHT22;49;48.530;9.200;2023-08-31T03:44:01;21.00;80.90
418;DHT22;49;48.530;9.200;2023-08-31T03:46:30;21.00;74.50
418;DHT22;49;48.530;9.200;2023-08-31T03:48:57;20.90;79.00
418;DHT22;49;48.530;9.200;2023-08-31T03:51:24;21.00;76.80
418;DHT22;49;48.530;9.200;2023-08-31T03:53:51;21.00;80.00
418;DHT22;49;48.530;9.200;2023-08-31T03:56:20;20.90;73.10
418;DHT22;49;48.530;9.200;2023-08-31T03:58:48;20.70;73.20
418;DHT22;49;48.530;9.200;2023-08-31T04:01:15;20.90;76.60
418;DHT22;49;48.530;9.200;2023-08-31T04:03:44;20.90;80.90
418;DHT22;49;48.530;9.200;2023-08-31T04:06:11;21.10;78.30
418;DHT22;49;48.530;9.200;2023-08-31T04:08:38;21.00;73.40
418;DHT22;49;48.530;9.200;2023-08-31T04:11:05;21.30;81.70
418;DHT22;49;48.530;9.200;2023-08-31T04:13:32;21.30;70.40
418;DHT22;49;48.530;9.200;2023-08-31T04:16:06;21.40;76.10
418;DHT22;49;48.530;9.200;2023-08-31T04:18:33;21.50;71.80
418;DHT22;49;48.530;9.200;2023-08-31T04:21:00;21.50;73.90
418;DHT22;49;48.530;9.200;2023-08-31T04:23:29;21.60;74.00
418;DHT22;49;48.530;9.200;2023-08-31T04:25:58;21.70;70.40
418;DHT22;49;48.530;9.200;2023-08-31T04:28:25;21.70;69.50
418;DHT22;49;48.530;9.200;2023-08-31T04:30:52;21.80;68.20
418;DHT22;49;48.530;9.200;2023-08-31T04:33:20;21.90;67.10
418;DHT22;49;48.530;9.200;2023-08-31T04:35:47;21.90;72.00
418;DHT22;49;48.530;9.200;2023-08-31T04:38:15;21.80;67.40
418;DHT22;49;48.530;9.200;2023-08-31T04:40:43;21.70;66.70
418;DHT22;49;48.530;9.200;2023-08-31T04:43:10;21.50;63.90
418;DHT22;49;48.530;9.200;2023-08-31T04:45:37;21.30;65.90
418;DHT22;49;48.530;9.200;2023-08-31T04:48:04;21.40;65.30
418;DHT22;49;48.530;9.200;2023-08-31T04:50:32;21.30;66.90
418;DHT22;49;48.530;9.200;2023-08-31T04:52:59;21.20;61.10
418;DHT22;49;48.530;9.200;2023-08-31T04:55:27;21.20;71.10
418;DHT22;49;48.530;9.200;2023-08-31T04:57:53;21.20;66.30
418;DHT22;49;48.530;9.200;2023-08-31T05:00:22;21.00;71.80
418;DHT22;49;48.530;9.200;2023-08-31T05:02:49;21.20;73.60
418;DHT22;49;48.530;9.200;2023-08-31T05:05:16;21.20;68.60
418;DHT22;49;48.530;9.200;2023-08-31T05:07:46;21.00;64.80
418;DHT22;49;48.530;9.200;2023-08-31T05:10:13;21.00;73.50
418;DHT22;49;48.530;9.200;2023-08-31T05:12:40;20.90;71.30
418;DHT22;49;48.530;9.200;2023-08-31T05:15:07;21.10;64.60
418;DHT22;49;48.530;9.200;2023-08-31T05:17:35;21.10;68.40
418;DHT22;49;48.530;9.200;2023-08-31T05:20:02;21.20;67.90
418;DHT22;49;48.530;9.200;2023-08-31T05:22:30;21.50;69.70
418;DHT22;49;48.530;9.200;2023-08-31T05:24:58;21.60;69.30
418;DHT22;49;48.530;9.200;2023-08-31T05:27:26;21.90;69.10
418;DHT22;49;48.530;9.200;2023-08-31T05:29:53;22.30;62.20
418;DHT22;49;48.530;9.200;2023-08-31T05:32:20;22.50;56.10
418;DHT22;49;48.530;9.200;2023-08-31T05:34:47;22.50;55.30
418;DHT22;49;48.530;9.200;2023-08-31T05:37:13;22.50;57.60
418;DHT22;49;48.530;9.200;2023-08-31T05:39:40;22.60;57.50
418;DHT22;49;48.530;9.200;2023-08-31T05:42:09;22.40;52.10
418;DHT22;49;48.530;9.200;2023-08-31T05:44:36;22.40;55.50
418;DHT22;49;48.530;9.200;2023-08-31T05:47:05;22.50;60.90
418;DHT22;49;48.530;9.200;2023-08-31T05:49:35;23.40;57.90
418;DHT22;49;48.530;9.200;2023-08-31T05:52:02;23.90;46.80
418;DHT22;49;48.530;9.200;2023-08-31T05:54:29;24.40;50.40
418;DHT22;49;48.530;9.200;2023-08-31T05:56:56;25.20;43.80
418;DHT22;49;48.530;9.200;2023-08-31T05:59:25;25.90;31.30
418;DHT22;49;48.530;9.200;2023-08-31T06:01:52;25.90;28.00
418;DHT22;49;48.530;9.200;2023-08-31T06:04:18;25.20;30.10
418;DHT22;49;48.530;9.200;2023-08-31T06:06:45;24.60;30.70
418;DHT22;49;48.530;9.200;2023-08-31T06:09:13;23.80;33.20
418;DHT22;49;48.530;9.200;2023-08-31T06:11:40;23.20;35.70
418;DHT22;49;48.530;9.200;2023-08-31T06:14:07;22.50;43.00
418;DHT22;49;48.530;9.200;2023-08-31T06:16:35;22.20;44.20
418;DHT22;49;48.530;9.200;2023-08-31T06:19:02;21.60;46.00
418;DHT22;49;48.530;9.200;2023-08-31T06:21:29;21.60;57.30
418;DHT22;49;48.530;9.200;2023-08-31T06:23:56;21.80;54.20
418;DHT22;49;48.530;9.200;2023-08-31T06:26:23;22.00;49.80
418;DHT22;49;48.530;9.200;2023-08-31T06:28:50;22.10;46.90
418;DHT22;49;48.530;9.200;2023-08-31T06:31:17;22.10;50.40
418;DHT22;49;48.530;9.200;2023-08-31T06:33:46;22.00;48.70
418;DHT22;49;48.530;9.200;2023-08-31T06:36:13;22.20;51.00
418;DHT22;49;48.530;9.200;2023-08-31T06:38:39;22.20;51.70
418;DHT22;49;48.530;9.200;2023-08-31T06:41:06;22.20;51.70
418;DHT22;49;48.530;9.200;2023-08-31T06:43:34;22.20;46.10
418;DHT22;49;48.530;9.200;2023-08-31T06:46:01;22.00;50.00
418;DHT22;49;48.530;9.200;2023-08-31T06:48:28;22.30;49.50
418;DHT22;49;48.530;9.200;2023-08-31T06:50:56;22.40;47.80
418;DHT22;49;48.530;9.200;2023-08-31T06:53:24;22.70;46.70
418;DHT22;49;48.530;9.200;2023-08-31T06:55:51;22.90;44.90
418;DHT22;49;48.530;9.200;2023-08-31T06:58:18;23.10;42.60
418;DHT22;49;48.530;9.200;2023-08-31T07:00:45;23.20;43.80
418;DHT22;49;48.530;9.200;2023-08-31T07:03:12;23.60;43.10
418;DHT22;49;48.530;9.200;2023-08-31T07:05:42;23.70;36.70
418;DHT22;49;48.530;9.200;2023-08-31T07:08:11;23.70;37.50
418;DHT22;49;48.530;9.200;2023-08-31T07:10:38;23.30;39.50
418;DHT22;49;48.530;9.200;2023-08-31T07:13:05;23.10;38.70
418;DHT22;49;48.530;9.200;2023-08-31T07:15:32;23.10;37.40
418;DHT22;49;48.530;9.200;2023-08-31T07:17:59;23.10;36.60
418;DHT22;49;48.530;9.200;2023-08-31T07:20:26;23.00;36.50
418;DHT22;49;48.530;9.200;2023-08-31T07:22:53;23.40;46.50
418;DHT22;49;48.530;9.200;2023-08-31T07:25:21;24.40;35.00
418;DHT22;49;48.530;9.200;2023-08-31T07:27:48;25.20;30.00
418;DHT22;49;48.530;9.200;2023-08-31T07:30:16;25.30;25.50
418;DHT22;49;48.530;9.200;2023-08-31T07:32:43;25.40;27.10
418;DHT22;49;48.530;9.200;2023-08-31T07:35:09;25.70;23.90
418;DHT22;49;48.530;9.200;2023-08-31T07:37:36;25.60;23.20
418;DHT22;49;48.530;9.200;2023-08-31T07:40:04;25.30;23.90
418;DHT22;49;48.530;9.200;2023-08-31T07:42:36;24.90;25.60
418;DHT22;49;48.530;9.200;2023-08-31T07:45:04;24.60;27.20
418;DHT22;49;48.530;9.200;2023-08-31T07:47:32;24.30;27.00
418;DHT22;49;48.530;9.200;2023-08-31T07:49:59;24.40;27.10
418;DHT22;49;48.530;9.200;2023-08-31T07:52:25;24.80;25.80
418;DHT22;49;48.530;9.200;2023-08-31T07:54:52;25.10;23.40
418;DHT22;49;48.530;9.200;2023-08-31T07:57:19;24.70;23.10
418;DHT22;49;48.530;9.200;2023-08-31T07:59:48;25.20;26.70
418;DHT22;49;48.530;9.200;2023-08-31T08:02:15;25.50;21.80
418;DHT22;49;48.530;9.200;2023-08-31T08:04:42;25.90;19.00
418;DHT22;49;48.530;9.200;2023-08-31T08:07:09;26.30;20.20
418;DHT22;49;48.530;9.200;2023-08-31T08:09:39;26.50;20.20
418;DHT22;49;48.530;9.200;2023-08-31T08:12:07;27.50;16.50
418;DHT22;49;48.530;9.200;2023-08-31T08:14:34;28.80;10.30
418;DHT22;49;48.530;9.200;2023-08-31T08:17:02;29.20;8.80
418;DHT22;49;48.530;9.200;2023-08-31T08:19:30;28.50;9.20
418;DHT22;49;48.530;9.200;2023-08-31T08:21:59;28.00;8.50
418;DHT22;49;48.530;9.200;2023-08-31T08:24:26;27.30;10.30
418;DHT22;49;48.530;9.200;2023-08-31T08:26:53;27.00;9.70
418;DHT22;49;48.530;9.200;2023-08-31T08:29:20;27.30;6.90
418;DHT22;49;48.530;9.200;2023-08-31T08:31:47;27.70;11.30
418;DHT22;49;48.530;9.200;2023-08-31T08:34:16;28.20;6.40
418;DHT22;49;48.530;9.200;2023-08-31T08:36:43;28.30;5.50
418;DHT22;49;48.530;9.200;2023-08-31T08:39:10;28.20;6.80
418;DHT22;49;48.530;9.200;2023-08-31T08:41:37;28.10;3.60
418;DHT22;49;48.530;9.200;2023-08-31T08:44:06;26.70;6.30
418;DHT22;49;48.530;9.200;2023-08-31T08:46:33;25.70;10.30
418;DHT22;49;48.530;9.200;2023-08-31T08:49:02;25.60;10.90
418;DHT22;49;48.530;9.200;2023-08-31T08:51:32;25.70;12.20
418;DHT22;49;48.530;9.200;2023-08-31T08:53:59;26.20;9.30
418;DHT22;49;48.530;9.200;2023-08-31T08:56:27;26.80;10.00
418;DHT22;49;48.530;9.200;2023-08-31T08:58:54;27.00;7.60
418;DHT22;49;48.530;9.200;2023-08-31T09:01:22;27.00;8.50
418;DHT22;49;48.530;9.200;2023-08-31T09:03:50;26.10;10.50
418;DHT22;49;48.530;9.200;2023-08-31T09:06:18;25.40;9.90
418;DHT22;49;48.530;9.200;2023-08-31T09:08:53;24.90;7.90
418;DHT22;49;48.530;9.200;2023-08-31T09:11:20;24.60;12.80
418;DHT22;49;48.530;9.200;2023-08-31T09:13:48;24.80;12.40
418;DHT22;49;48.530;9.200;2023-08-31T09:16:24;25.40;13.60
418;DHT22;49;48.530;9.200;2023-08-31T09:18:52;25.30;9.20
418;DHT22;49;48.530;9.200;2023-08-31T09:21:19;25.20;14.70
418;DHT22;49;48.530;9.200;2023-08-31T09:23:55;25.00;10.70
418;DHT22;49;48.530;9.200;2023-08-31T09:26:23;23.90;11.10
418;DHT22;49;48.530;9.200;2023-08-31T09:28:50;23.00;12.30
418;DHT22;49;48.530;9.200;2023-08-31T09:31:17;22.90;13.40
418;DHT22;49;48.530;9.200;2023-08-31T09:33:50;23.00;13.10
418;DHT22;49;48.530;9.200;2023-08-31T09:36:17;22.70;13.70
418;DHT22;49;48.530;9.200;2023-08-31T09:38:45;23.40;15.90
418;DHT22;49;48.530;9.200;2023-08-31T09:41:14;24.10;15.60
418;DHT22;49;48.530;9.200;2023-08-31T09:43:41;24.90;10.50
418;DHT22;49;48.530;9.200;2023-08-31T09:46:09;24.70;12.10
418;DHT22;49;48.530;9.200;2023-08-31T09:48:37;24.20;10.30
418;DHT22;49;48.530;9.200;2023-08-31T09:51:05;24.60;15.10
418;DHT22;49;48.530;9.200;2023-08-31T09:53:36;25.10;11.80
418;DHT22;49;48.530;9.200;2023-08-31T09:56:05;25.30;10.30
418;DHT22;49;48.530;9.200;2023-08-31T09:58:33;25.30;10.00
418;DHT22;49;48.530;9.200;2023-08-31T10:01:01;25.20;9.60
418;DHT22;49;48.530;9.200;2023-08-31T10:03:28;25.20;7.00
418;DHT22;49;48.530;9.200;2023-08-31T10:05:56;25.00;7.50
418;DHT22;49;48.530;9.200;2023-08-31T10:08:27;24.70;8.90
418;DHT22;49;48.530;9.200;2023-08-31T10:10:59;24.80;8.70
418;DHT22;49;48.530;9.200;2023-08-31T10:13:26;24.90;11.50
418;DHT22;49;48.530;9.200;2023-08-31T10:15:58;24.90;8.90
418;DHT22;49;48.530;9.200;2023-08-31T10:18:25;24.10;9.30
418;DHT22;49;48.530;9.200;2023-08-31T10:20:53;23.80;8.50
418;DHT22;49;48.530;9.200;2023-08-31T10:23:20;24.00;9.90
418;DHT22;49;48.530;9.200;2023-08-31T10:26:00;24.40;8.70
418;DHT22;49;48.530;9.200;2023-08-31T10:28:27;24.50;12.40
418;DHT22;49;48.530;9.200;2023-08-31T10:31:02;24.60;9.90
418;DHT22;49;48.530;9.200;2023-08-31T10:33:31;24.80;12.10
418;DHT22;49;48.530;9.200;2023-08-31T10:35:59;24.50;9.80
418;DHT22;49;48.530;9.200;2023-08-31T10:38:27;23.90;9.60
418;DHT22;49;48.530;9.200;2023-08-31T10:41:19;23.70;11.60
418;DHT22;49;48.530;9.200;2023-08-31T10:43:48;24.00;11.90
418;DHT22;49;48.530;9.200;2023-08-31T10:46:25;23.50;10.30
418;DHT22;49;48.530;9.200;2023-08-31T10:48:54;23.40;8.70
418;DHT22;49;48.530;9.200;2023-08-31T10:51:23;24.10;12.00
418;DHT22;49;48.530;9.200;2023-08-31T10:53:50;24.50;10.30
418;DHT22;49;48.530;9.200;2023-08-31T10:56:17;24.80;13.50
418;DHT22;49;48.530;9.200;2023-08-31T10:58:58;25.10;7.70
418;DHT22;49;48.530;9.200;2023-08-31T11:01:58;24.70;7.50
418;DHT22;49;48.530;9.200;2023-08-31T11:04:27;23.70;11.70
418;DHT22;49;48.530;9.200;2023-08-31T11:07:13;24.00;15.50
418;DHT22;49;48.530;9.200;2023-08-31T11:09:41;24.40;15.60
418;DHT22;49;48.530;9.200;2023-08-31T11:12:09;24.80;9.10
418;DHT22;49;48.530;9.200;2023-08-31T11:14:36;25.20;7.40
418;DHT22;49;48.530;9.200;2023-08-31T11:17:05;25.70;8.10
418;DHT22;49;48.530;9.200;2023-08-31T11:19:33;25.50;8.00
418;DHT22;49;48.530;9.200;2023-08-31T11:22:01;25.70;5.30
418;DHT22;49;48.530;9.200;2023-08-31T11:24:28;25.80;8.90
418;DHT22;49;48.530;9.200;2023-08-31T11:26:55;26.00;13.40
418;DHT22;49;48.530;9.200;2023-08-31T11:29:22;26.20;11.70
418;DHT22;49;48.530;9.200;2023-08-31T11:31:49;26.00;6.10
418;DHT22;49;48.530;9.200;2023-08-31T11:34:18;25.60;5.00
418;DHT22;49;48.530;9.200;2023-08-31T11:36:47;25.40;8.00
418;DHT22;49;48.530;9.200;2023-08-31T11:39:14;25.20;5.50
418;DHT22;49;48.530;9.200;2023-08-31T11:41:42;25.10;7.30
418;DHT22;49;48.530;9.200;2023-08-31T11:44:10;25.40;6.00
418;DHT22;49;48.530;9.200;2023-08-31T11:46:39;25.50;7.20
418;DHT22;49;48.530;9.200;2023-08-31T11:49:07;25.20;6.70
418;DHT22;49;48.530;9.200;2023-08-31T11:51:36;24.60;6.90
418;DHT22;49;48.530;9.200;2023-08-31T11:54:04;24.50;6.90
418;DHT22;49;48.530;9.200;2023-08-31T11:56:42;25.00;8.50
418;DHT22;49;48.530;9.200;2023-08-31T11:59:10;25.30;13.90
418;DHT22;49;48.530;9.200;2023-08-31T12:01:39;25.10;6.90
418;DHT22;49;48.530;9.200;2023-08-31T12:04:13;24.60;10.40
418;DHT22;49;48.530;9.200;2023-08-31T12:06:42;25.20;9.20
418;DHT22;49;48.530;9.200;2023-08-31T12:09:12;25.50;7.50
418;DHT22;49;48.530;9.200;2023-08-31T12:11:39;25.70;6.90
418;DHT22;49;48.530;9.200;2023-08-31T12:14:19;26.00;5.80
418;DHT22;49;48.530;9.200;2023-08-31T12:16:46;26.00;11.50
418;DHT22;49;48.530;9.200;2023-08-31T12:19:13;26.40;10.80
418;DHT22;49;48.530;9.200;2023-08-31T12:21:44;26.40;6.60
418;DHT22;49;48.530;9.200;2023-08-31T12:24:11;26.30;13.10
418;DHT22;49;48.530;9.200;2023-08-31T12:26:40;25.70;6.00
418;DHT22;49;48.530;9.200;2023-08-31T12:29:07;25.30;8.70
418;DHT22;49;48.530;9.200;2023-08-31T12:31:34;25.60;10.20
418;DHT22;49;48.530;9.200;2023-08-31T12:34:01;25.40;8.20
418;DHT22;49;48.530;9.200;2023-08-31T12:36:31;25.50;5.80
418;DHT22;49;48.530;9.200;2023-08-31T12:39:00;25.00;6.80
418;DHT22;49;48.530;9.200;2023-08-31T12:41:29;25.20;7.70
418;DHT22;49;48.530;9.200;2023-08-31T12:43:56;25.30;7.20
418;DHT22;49;48.530;9.200;2023-08-31T12:46:24;25.30;5.80
418;DHT22;49;48.530;9.200;2023-08-31T12:48:51;25.50;6.80
418;DHT22;49;48.530;9.200;2023-08-31T12:51:19;25.70;5.50
418;DHT22;49;48.530;9.200;2023-08-31T12:53:46;25.40;7.00
418;DHT22;49;48.530;9.200;2023-08-31T12:56:15;25.90;6.50
418;DHT22;49;48.530;9.200;2023-08-31T12:58:48;26.20;7.10
418;DHT22;49;48.530;9.200;2023-08-31T13:01:15;26.30;5.00
418;DHT22;49;48.530;9.200;2023-08-31T13:03:42;25.70;6.20
418;DHT22;49;48.530;9.200;2023-08-31T13:06:09;25.80;9.50
418;DHT22;49;48.530;9.200;2023-08-31T13:08:36;25.90;10.90
418;DHT22;49;48.530;9.200;2023-08-31T13:11:03;26.00;7.80
418;DHT22;49;48.530;9.200;2023-08-31T13:13:32;26.00;5.00
418;DHT22;49;48.530;9.200;2023-08-31T13:15:59;25.80;7.00
418;DHT22;49;48.530;9.200;2023-08-31T13:18:25;25.90;5.80
418;DHT22;49;48.530;9.200;2023-08-31T13:20:53;25.70;7.10
418;DHT22;49;48.530;9.200;2023-08-31T13:23:21;24.80;8.90
418;DHT22;49;48.530;9.200;2023-08-31T13:25:48;24.80;8.50
418;DHT22;49;48.530;9.200;2023-08-31T13:28:15;24.60;8.40
418;DHT22;49;48.530;9.200;2023-08-31T13:30:46;24.70;8.90
418;DHT22;49;48.530;9.200;2023-08-31T13:33:15;25.10;10.90
418;DHT22;49;48.530;9.200;2023-08-31T13:35:41;25.40;9.40
418;DHT22;49;48.530;9.200;2023-08-31T13:38:08;25.70;8.40
418;DHT22;49;48.530;9.200;2023-08-31T13:40:35;26.30;7.50
418;DHT22;49;48.530;9.200;2023-08-31T13:43:03;26.20;5.50
418;DHT22;49;48.530;9.200;2023-08-31T13:45:30;26.10;11.60
418;DHT22;49;48.530;9.200;2023-08-31T13:47:59;25.70;6.80
418;DHT22;49;48.530;9.200;2023-08-31T13:50:26;25.30;6.90
418;DHT22;49;48.530;9.200;2023-08-31T13:52:53;24.60;8.10
418;DHT22;49;48.530;9.200;2023-08-31T13:55:20;24.90;9.20
418;DHT22;49;48.530;9.200;2023-08-31T13:57:47;25.40;7.60
418;DHT22;49;48.530;9.200;2023-08-31T14:00:15;25.60;8.20
418;DHT22;49;48.530;9.200;2023-08-31T14:02:42;25.90;7.30
418;DHT22;49;48.530;9.200;2023-08-31T14:05:11;26.20;8.20
418;DHT22;49;48.530;9.200;2023-08-31T14:07:40;26.40;7.80
418;DHT22;49;48.530;9.200;2023-08-31T14:10:08;26.10;5.90
418;DHT22;49;48.530;9.200;2023-08-31T14:12:35;25.60;6.20
418;DHT22;49;48.530;9.200;2023-08-31T14:15:02;25.00;9.10
418;DHT22;49;48.530;9.200;2023-08-31T14:17:30;24.60;9.80
418;DHT22;49;48.530;9.200;2023-08-31T14:19:59;24.80;9.70
418;DHT22;49;48.530;9.200;2023-08-31T14:22:29;24.80;8.20
418;DHT22;49;48.530;9.200;2023-08-31T14:24:57;24.80;8.90
418;DHT22;49;48.530;9.200;2023-08-31T14:27:24;24.50;8.70
418;DHT22;49;48.530;9.200;2023-08-31T14:29:52;24.30;10.50
418;DHT22;49;48.530;9.200;2023-08-31T14:32:19;24.20;10.50
418;DHT22;49;48.530;9.200;2023-08-31T14:34:47;24.30;9.80
418;DHT22;49;48.530;9.200;2023-08-31T14:37:14;24.90;12.10
418;DHT22;49;48.530;9.200;2023-08-31T14:39:42;25.60;8.70
418;DHT22;49;48.530;9.200;2023-08-31T14:42:09;25.80;6.60
418;DHT22;49;48.530;9.200;2023-08-31T14:44:36;25.70;8.10
418;DHT22;49;48.530;9.200;2023-08-31T14:47:03;25.70;9.00
418;DHT22;49;48.530;9.200;2023-08-31T14:49:30;25.60;6.60
418;DHT22;49;48.530;9.200;2023-08-31T14:51:57;25.10;12.80
418;DHT22;49;48.530;9.200;2023-08-31T14:54:30;25.20;9.60
418;DHT22;49;48.530;9.200;2023-08-31T14:56:58;25.30;8.40
418;DHT22;49;48.530;9.200;2023-08-31T14:59:25;25.20;9.50
418;DHT22;49;48.530;9.200;2023-08-31T15:01:52;25.60;9.70
418;DHT22;49;48.530;9.200;2023-08-31T15:04:19;25.90;7.30
418;DHT22;49;48.530;9.200;2023-08-31T15:06:46;25.50;11.70
418;DHT22;49;48.530;9.200;2023-08-31T15:09:13;25.70;7.40
418;DHT22;49;48.530;9.200;2023-08-31T15:11:40;26.00;8.60
418;DHT22;49;48.530;9.200;2023-08-31T15:14:11;26.30;12.40
418;DHT22;49;48.530;9.200;2023-08-31T15:16:38;26.20;8.20
418;DHT22;49;48.530;9.200;2023-08-31T15:19:06;26.10;9.90
418;DHT22;49;48.530;9.200;2023-08-31T15:21:33;26.00;12.50
418;DHT22;49;48.530;9.200;2023-08-31T15:24:00;26.00;8.80
418;DHT22;49;48.530;9.200;2023-08-31T15:26:28;26.10;10.00
418;DHT22;49;48.530;9.200;2023-08-31T15:28:55;25.90;7.90
418;DHT22;49;48.530;9.200;2023-08-31T15:31:23;25.80;11.50
418;DHT22;49;48.530;9.200;2023-08-31T15:33:50;25.70;12.50
418;DHT22;49;48.530;9.200;2023-08-31T15:36:17;25.70;12.30
418;DHT22;49;48.530;9.200;2023-08-31T15:38:44;25.80;9.50
418;DHT22;49;48.530;9.200;2023-08-31T15:41:13;25.40;14.50
418;DHT22;49;48.530;9.200;2023-08-31T15:43:40;25.50;13.30
418;DHT22;49;48.530;9.200;2023-08-31T15:46:08;25.80;11.50
418;DHT22;49;48.530;9.200;2023-08-31T15:48:36;25.80;9.90
418;DHT22;49;48.530;9.200;2023-08-31T15:51:03;25.80;12.70
418;DHT22;49;48.530;9.200;2023-08-31T15:53:30;25.90;9.50
418;DHT22;49;48.530;9.200;2023-08-31T15:55:57;25.80;10.90
418;DHT22;49;48.530;9.200;2023-08-31T15:58:24;25.50;11.70
418;DHT22;49;48.530;9.200;2023-08-31T16:00:52;25.60;11.80
418;DHT22;49;48.530;9.200;2023-08-31T16:03:26;25.60;13.90
418;DHT22;49;48.530;9.200;2023-08-31T16:05:57;25.80;12.10
418;DHT22;49;48.530;9.200;2023-08-31T16:08:25;25.90;13.80
418;DHT22;49;48.530;9.200;2023-08-31T16:10:52;25.80;11.80
418;DHT22;49;48.530;9.200;2023-08-31T16:13:19;25.40;11.40
418;DHT22;49;48.530;9.200;2023-08-31T16:15:47;25.20;11.70
418;DHT22;49;48.530;9.200;2023-08-31T16:18:15;25.20;16.10
418;DHT22;49;48.530;9.200;2023-08-31T16:20:43;25.30;11.80
418;DHT22;49;48.530;9.200;2023-08-31T16:23:11;25.20;15.50
418;DHT22;49;48.530;9.200;2023-08-31T16:25:38;25.00;12.10
418;DHT22;49;48.530;9.200;2023-08-31T16:28:06;25.10;18.20
418;DHT22;49;48.530;9.200;2023-08-31T16:30:33;25.20;13.60
418;DHT22;49;48.530;9.200;2023-08-31T16:33:00;25.20;16.80
418;DHT22;49;48.530;9.200;2023-08-31T16:35:27;25.20;11.70
418;DHT22;49;48.530;9.200;2023-08-31T16:37:54;25.20;19.30
418;DHT22;49;48.530;9.200;2023-08-31T16:40:23;25.40;14.20
418;DHT22;49;48.530;9.200;2023-08-31T16:42:49;25.10;11.90
418;DHT22;49;48.530;9.200;2023-08-31T16:45:16;25.10;12.80
418;DHT22;49;48.530;9.200;2023-08-31T16:47:43;25.20;15.50
418;DHT22;49;48.530;9.200;2023-08-31T16:50:10;25.30;13.50
418;DHT22;49;48.530;9.200;2023-08-31T16:52:37;25.30;16.00
418;DHT22;49;48.530;9.200;2023-08-31T16:55:05;25.40;13.20
418;DHT22;49;48.530;9.200;2023-08-31T16:57:33;25.40;12.90
418;DHT22;49;48.530;9.200;2023-08-31T17:00:00;25.10;14.40
418;DHT22;49;48.530;9.200;2023-08-31T17:02:27;25.00;18.10
418;DHT22;49;48.530;9.200;2023-08-31T17:04:56;25.00;17.10